Wick, West Virginia
Current Conditions -  °F | °C
As of 2:53 AM on Tuesday 27 Jan 2015 (Local Time) from KPKB Reporting Station
Overcast Overcast  
Wind Chill: 13°   Ceiling: 1600
Heat Index: 20°   Visibility: 10mi
Dew Point: 14°   Wind: 5mph
Humidity: 78%   Direction: 310°NW
Pressure: 29.93"   Gusts: NA
Location:  39.4757°N, 80.8982°W
Report Text: KPKB 270753Z AUTO 31004KT 10SM OVC016 M07/M10 A2993 RMK AO2 SLP146 T10671100
Loading
Personal Weather Stations






























Interactive Weather Map New forecast layout! Learn more

10-Day Weather Forecast

Advertisements
Track Severe Weather on mobile